createdAt,value
2023-05-10T00:00:44.172Z,1.43
2023-05-10T00:03:10.911Z,1.83
2023-05-10T00:05:37.524Z,2.00
2023-05-10T00:08:04.176Z,1.90
2023-05-10T00:10:30.640Z,1.92
2023-05-10T00:12:57.164Z,1.67
2023-05-10T00:15:23.685Z,1.73
2023-05-10T00:17:50.454Z,1.83
2023-05-10T00:20:17.308Z,1.50
2023-05-10T00:22:44.223Z,1.85
2023-05-10T00:25:11.502Z,2.07
2023-05-10T00:27:37.964Z,1.70
2023-05-10T00:30:04.969Z,1.90
2023-05-10T00:32:31.587Z,1.80
2023-05-10T00:34:58.103Z,1.30
2023-05-10T00:37:24.651Z,1.87
2023-05-10T00:39:51.158Z,1.95
2023-05-10T00:42:17.670Z,1.52
2023-05-10T00:44:44.142Z,1.88
2023-05-10T00:47:11.858Z,1.65
2023-05-10T00:49:38.579Z,1.30
2023-05-10T00:52:05.488Z,1.50
2023-05-10T00:54:32.043Z,1.48
2023-05-10T00:56:59.759Z,1.45
2023-05-10T00:59:26.456Z,1.67
2023-05-10T01:01:53.098Z,1.40
2023-05-10T01:04:22.675Z,1.52
2023-05-10T01:06:49.237Z,1.52
2023-05-10T01:09:15.948Z,1.10
2023-05-10T01:11:42.748Z,1.30
2023-05-10T01:14:09.534Z,1.40
2023-05-10T01:16:39.398Z,1.50
2023-05-10T01:19:27.509Z,1.55
2023-05-10T01:22:05.441Z,1.45
2023-05-10T01:24:53.382Z,1.77
2023-05-10T01:27:46.177Z,1.87
2023-05-10T01:30:41.674Z,1.50
2023-05-10T01:33:14.214Z,1.70
2023-05-10T01:36:07.908Z,1.60
2023-05-10T01:38:41.615Z,2.20
2023-05-10T01:41:18.625Z,2.30
2023-05-10T01:44:19.717Z,2.40
2023-05-10T01:46:57.944Z,2.15
2023-05-10T01:49:27.664Z,2.38
2023-05-10T01:52:00.250Z,2.63
2023-05-10T01:54:29.877Z,2.40
2023-05-10T01:57:01.039Z,2.45
2023-05-10T01:59:31.797Z,2.75
2023-05-10T02:02:00.244Z,3.03
2023-05-10T02:04:28.001Z,3.20
2023-05-10T02:06:56.434Z,3.53
2023-05-10T02:09:24.445Z,3.20
2023-05-10T02:11:51.574Z,3.50
2023-05-10T02:14:19.896Z,3.78
2023-05-10T02:16:47.913Z,3.15
2023-05-10T02:19:15.323Z,3.10
2023-05-10T02:21:42.648Z,3.47
2023-05-10T02:24:10.376Z,3.20
2023-05-10T02:26:37.348Z,3.30
2023-05-10T02:29:06.055Z,3.63
2023-05-10T02:31:34.558Z,3.17
2023-05-10T02:34:02.473Z,3.83
2023-05-10T02:36:30.120Z,3.72
2023-05-10T02:38:58.429Z,3.72
2023-05-10T02:41:27.274Z,4.00
2023-05-10T02:43:58.230Z,4.33
2023-05-10T02:46:25.271Z,3.95
2023-05-10T02:48:51.877Z,3.78
2023-05-10T02:51:20.696Z,4.30
2023-05-10T02:53:50.152Z,4.10
2023-05-10T02:56:26.006Z,3.80
2023-05-10T02:58:53.491Z,4.28
2023-05-10T03:01:20.043Z,3.95
2023-05-10T03:03:46.804Z,4.30
2023-05-10T03:06:13.525Z,4.93
2023-05-10T03:08:40.131Z,3.73
2023-05-10T03:11:38.257Z,3.97
2023-05-10T03:14:25.874Z,3.90
2023-05-10T03:17:01.255Z,4.68
2023-05-10T03:19:34.041Z,3.50
2023-05-10T03:22:06.231Z,4.03
2023-05-10T03:24:36.291Z,3.88
2023-05-10T03:27:05.306Z,4.35
2023-05-10T03:29:32.897Z,4.13
2023-05-10T03:32:00.593Z,4.60
2023-05-10T03:34:27.340Z,4.20
2023-05-10T03:36:53.846Z,4.10
2023-05-10T03:39:22.206Z,4.20
2023-05-10T03:41:48.716Z,4.68
2023-05-10T03:44:15.188Z,3.80
2023-05-10T03:46:41.680Z,4.13
2023-05-10T03:49:08.189Z,3.60
2023-05-10T03:51:34.993Z,3.92
2023-05-10T03:54:01.571Z,3.92
2023-05-10T03:56:28.074Z,3.50
2023-05-10T03:58:54.538Z,3.63
2023-05-10T04:01:21.063Z,3.92
2023-05-10T04:03:47.722Z,4.28
2023-05-10T04:06:14.350Z,4.05
2023-05-10T04:08:40.953Z,4.32
2023-05-10T04:11:12.433Z,4.47
2023-05-10T04:13:39.253Z,4.55
2023-05-10T04:16:06.278Z,4.03
2023-05-10T04:18:32.948Z,4.80
2023-05-10T04:20:59.409Z,4.53
2023-05-10T04:23:25.909Z,5.57
2023-05-10T04:25:52.700Z,4.28
2023-05-10T04:28:19.330Z,4.85
2023-05-10T04:30:46.203Z,4.60
2023-05-10T04:33:12.832Z,4.65
2023-05-10T04:35:40.931Z,4.43
2023-05-10T04:38:07.432Z,4.93
2023-05-10T04:40:34.003Z,4.55
2023-05-10T04:43:00.508Z,5.20
2023-05-10T04:45:27.034Z,4.68
2023-05-10T04:47:53.526Z,4.23
2023-05-10T04:50:20.039Z,4.53
2023-05-10T04:52:46.533Z,4.45
2023-05-10T04:55:13.009Z,3.83
2023-05-10T04:57:39.642Z,4.63
2023-05-10T05:00:06.794Z,3.47
2023-05-10T05:02:33.353Z,3.75
2023-05-10T05:05:00.096Z,3.72
2023-05-10T05:07:26.823Z,3.75
2023-05-10T05:09:53.305Z,3.75
2023-05-10T05:12:19.779Z,3.70
2023-05-10T05:14:46.275Z,3.50
2023-05-10T05:17:12.778Z,3.75
2023-05-10T05:19:39.332Z,3.53
2023-05-10T05:22:07.716Z,3.03
2023-05-10T05:24:39.104Z,3.30
2023-05-10T05:27:06.677Z,3.13
2023-05-10T05:29:33.476Z,3.45
2023-05-10T05:32:00.202Z,3.40
2023-05-10T05:34:27.004Z,3.15
2023-05-10T05:36:53.556Z,3.40
2023-05-10T05:39:20.284Z,3.25
2023-05-10T05:41:47.362Z,3.20
2023-05-10T05:44:13.827Z,3.20
2023-05-10T05:46:40.349Z,3.58
2023-05-10T05:49:06.859Z,4.17
2023-05-10T05:51:33.344Z,3.00
2023-05-10T05:54:00.006Z,2.95
2023-05-10T05:56:26.559Z,3.20
2023-05-10T05:58:53.020Z,3.72
2023-05-10T06:01:19.637Z,3.77
2023-05-10T06:03:46.172Z,3.90
2023-05-10T06:06:13.566Z,3.85
2023-05-10T06:08:40.046Z,3.70
2023-05-10T06:11:06.531Z,3.75
2023-05-10T06:13:33.420Z,3.17
2023-05-10T06:16:00.311Z,3.92
2023-05-10T06:18:27.488Z,3.42
2023-05-10T06:20:53.995Z,2.97
2023-05-10T06:23:20.466Z,3.25
2023-05-10T06:25:46.997Z,3.77
2023-05-10T06:28:13.446Z,4.20
2023-05-10T06:30:39.967Z,3.75
2023-05-10T06:33:06.970Z,3.65
2023-05-10T06:35:34.511Z,3.70
2023-05-10T06:38:01.019Z,3.80
2023-05-10T06:40:27.708Z,4.53
2023-05-10T06:42:54.212Z,3.72
2023-05-10T06:45:21.018Z,3.70
2023-05-10T06:47:47.790Z,4.68
2023-05-10T06:50:14.408Z,4.27
2023-05-10T06:52:41.012Z,4.50
2023-05-10T06:55:08.051Z,3.90
2023-05-10T06:57:34.630Z,3.97
2023-05-10T07:00:01.241Z,4.00
2023-05-10T07:02:28.241Z,4.93
2023-05-10T07:04:55.169Z,4.45
2023-05-10T07:07:22.104Z,3.92
2023-05-10T07:09:48.594Z,4.68
2023-05-10T07:12:15.990Z,4.70
2023-05-10T07:14:43.113Z,4.80
2023-05-10T07:17:10.327Z,4.18
2023-05-10T07:19:36.958Z,4.20
2023-05-10T07:22:03.578Z,4.07
2023-05-10T07:24:30.838Z,4.25
2023-05-10T07:26:57.371Z,3.53
2023-05-10T07:29:24.000Z,3.70
2023-05-10T07:31:50.533Z,4.13
2023-05-10T07:34:17.073Z,4.35
2023-05-10T07:36:44.768Z,4.70
2023-05-10T07:39:12.732Z,3.93
2023-05-10T07:41:42.748Z,5.13
2023-05-10T07:44:09.256Z,4.10
2023-05-10T07:46:35.740Z,3.80
2023-05-10T07:49:02.192Z,4.60
2023-05-10T07:51:29.581Z,4.33
2023-05-10T07:53:56.243Z,4.50
2023-05-10T07:56:30.786Z,3.85
2023-05-10T07:58:57.637Z,4.03
2023-05-10T08:01:25.260Z,4.10
2023-05-10T08:03:52.569Z,3.70
2023-05-10T08:06:20.560Z,4.30
2023-05-10T08:08:50.400Z,4.07
2023-05-10T08:11:18.410Z,4.35
2023-05-10T08:13:46.239Z,4.18
2023-05-10T08:16:12.875Z,4.03
2023-05-10T08:18:40.522Z,4.45
2023-05-10T08:21:08.367Z,4.70
2023-05-10T08:23:34.903Z,4.22
2023-05-10T08:26:01.505Z,4.88
2023-05-10T08:28:28.224Z,4.70
2023-05-10T08:30:54.935Z,4.90
2023-05-10T08:33:21.538Z,5.30
2023-05-10T08:35:48.062Z,5.53
2023-05-10T08:38:14.531Z,5.05
2023-05-10T08:40:45.430Z,4.83
2023-05-10T08:43:14.013Z,5.28
2023-05-10T08:45:43.385Z,4.95
2023-05-10T08:48:11.337Z,4.30
2023-05-10T08:50:39.103Z,4.72
2023-05-10T08:53:10.232Z,5.33
2023-05-10T08:55:39.384Z,5.28
2023-05-10T08:58:06.522Z,4.82
2023-05-10T09:00:34.289Z,4.93
2023-05-10T09:03:01.746Z,4.53
2023-05-10T09:05:28.580Z,4.10
2023-05-10T09:07:55.239Z,4.15
2023-05-10T09:10:22.727Z,4.13
2023-05-10T09:12:49.923Z,4.70
2023-05-10T09:15:20.198Z,3.80
2023-05-10T09:17:48.220Z,4.20
2023-05-10T09:20:14.853Z,4.30
2023-05-10T09:22:41.732Z,3.65
2023-05-10T09:25:10.597Z,3.97
2023-05-10T09:27:38.065Z,4.45
2023-05-10T09:30:06.239Z,4.73
2023-05-10T09:32:45.231Z,3.70
2023-05-10T09:35:17.005Z,3.47
2023-05-10T09:37:47.129Z,3.38
2023-05-10T09:40:18.478Z,3.10
2023-05-10T09:43:07.055Z,2.70
2023-05-10T09:45:37.786Z,3.22
2023-05-10T09:48:05.757Z,3.38
2023-05-10T09:50:32.471Z,2.90
2023-05-10T09:53:00.969Z,3.25
2023-05-10T09:55:41.030Z,2.97
2023-05-10T09:58:11.503Z,3.17
2023-05-10T10:00:40.076Z,3.45
2023-05-10T10:03:07.740Z,3.45
2023-05-10T10:05:36.877Z,2.75
2023-05-10T10:08:05.435Z,3.20
2023-05-10T10:10:33.277Z,2.70
2023-05-10T10:13:00.672Z,2.80
2023-05-10T10:15:27.204Z,2.45
2023-05-10T10:17:54.921Z,2.25
2023-05-10T10:20:26.114Z,2.87
2023-05-10T10:22:53.515Z,2.83
2023-05-10T10:25:24.169Z,2.30
2023-05-10T10:27:53.483Z,3.10
2023-05-10T10:30:42.650Z,2.42
2023-05-10T10:33:31.130Z,1.90
2023-05-10T10:36:03.648Z,1.90
2023-05-10T10:39:00.239Z,1.80
2023-05-10T10:41:32.216Z,1.88
2023-05-10T10:44:35.477Z,1.88
2023-05-10T10:47:11.257Z,1.90
2023-05-10T10:49:40.895Z,1.70
2023-05-10T10:52:31.099Z,1.35
2023-05-10T10:55:01.425Z,1.35
2023-05-10T10:57:31.067Z,1.55
2023-05-10T11:00:19.489Z,1.80
2023-05-10T11:02:49.158Z,2.35
2023-05-10T11:05:33.927Z,1.90
2023-05-10T11:08:01.683Z,1.67
2023-05-10T11:10:28.459Z,1.85
2023-05-10T11:13:05.234Z,1.47
2023-05-10T11:15:33.665Z,2.00
2023-05-10T11:18:01.081Z,1.40
2023-05-10T11:20:40.018Z,1.73
2023-05-10T11:23:16.605Z,1.70
2023-05-10T11:25:45.207Z,2.03
2023-05-10T11:28:13.060Z,2.10
2023-05-10T11:30:42.242Z,1.75
2023-05-10T11:33:09.620Z,1.48
2023-05-10T11:35:43.132Z,1.58
2023-05-10T11:38:22.579Z,1.87
2023-05-10T11:40:55.492Z,1.98
2023-05-10T11:43:25.065Z,2.42
2023-05-10T11:45:53.913Z,2.38
2023-05-10T11:48:24.716Z,1.75
2023-05-10T11:50:51.509Z,1.90
2023-05-10T11:53:18.171Z,1.70
2023-05-10T11:55:44.999Z,2.00
2023-05-10T11:58:11.517Z,2.08
2023-05-10T12:00:40.078Z,2.00
2023-05-10T12:03:09.700Z,1.77
2023-05-10T12:05:37.058Z,1.60
2023-05-10T12:08:16.994Z,1.50
2023-05-10T12:10:43.531Z,1.10
2023-05-10T12:13:15.225Z,1.25
2023-05-10T12:15:44.776Z,1.37
2023-05-10T12:18:12.709Z,1.10
2023-05-10T12:20:39.867Z,1.50
2023-05-10T12:23:07.139Z,1.50
2023-05-10T12:25:35.693Z,1.42
2023-05-10T12:28:06.540Z,1.30
2023-05-10T12:30:34.709Z,1.90
2023-05-10T12:33:16.094Z,1.70
2023-05-10T12:35:47.163Z,1.52
2023-05-10T12:38:27.207Z,1.42
2023-05-10T12:40:53.724Z,1.40
2023-05-10T12:43:20.381Z,1.17
2023-05-10T12:45:49.047Z,1.42
2023-05-10T12:48:18.611Z,1.15
2023-05-10T12:50:45.121Z,1.80
2023-05-10T12:53:11.882Z,1.50
2023-05-10T12:55:38.397Z,1.25
2023-05-10T12:58:04.905Z,0.98
2023-05-10T13:00:31.467Z,1.33
2023-05-10T13:02:57.947Z,1.10
2023-05-10T13:05:24.427Z,1.30
2023-05-10T13:07:50.996Z,1.33
2023-05-10T13:10:18.004Z,1.50
2023-05-10T13:12:44.764Z,1.65
2023-05-10T13:15:11.520Z,1.67
2023-05-10T13:17:39.946Z,1.73
2023-05-10T13:20:07.287Z,1.48
2023-05-10T13:22:40.103Z,1.40
2023-05-10T13:25:07.357Z,1.42
2023-05-10T13:27:33.873Z,1.70
2023-05-10T13:30:00.404Z,1.40
2023-05-10T13:32:27.333Z,0.80
2023-05-10T13:34:53.802Z,0.95
2023-05-10T13:37:20.508Z,0.95
2023-05-10T13:39:46.974Z,1.00
2023-05-10T13:42:13.472Z,0.90
2023-05-10T13:44:40.014Z,0.98
2023-05-10T13:47:07.115Z,0.50
2023-05-10T13:49:34.932Z,0.88
2023-05-10T13:52:07.889Z,0.80
2023-05-10T13:54:40.260Z,0.70
2023-05-10T13:57:07.569Z,0.70
2023-05-10T13:59:34.175Z,0.80
2023-05-10T14:02:03.535Z,0.77
2023-05-10T14:04:30.650Z,0.70
2023-05-10T14:06:57.420Z,1.27
2023-05-10T14:09:24.002Z,1.33
2023-05-10T14:11:50.497Z,1.40
2023-05-10T14:14:17.119Z,1.50
2023-05-10T14:16:45.318Z,1.27
2023-05-10T14:19:12.417Z,1.20
2023-05-10T14:21:39.094Z,1.35
2023-05-10T14:24:05.928Z,1.10
2023-05-10T14:26:32.541Z,1.33
2023-05-10T14:28:59.913Z,1.45
2023-05-10T14:31:26.619Z,1.03
2023-05-10T14:33:54.062Z,1.13
2023-05-10T14:36:20.562Z,1.10
2023-05-10T14:38:47.105Z,1.00
2023-05-10T14:41:18.330Z,1.35
2023-05-10T14:43:45.093Z,1.20
2023-05-10T14:46:11.628Z,1.10
2023-05-10T14:48:38.220Z,1.08
2023-05-10T14:51:04.945Z,1.05
2023-05-10T14:53:31.718Z,0.80
2023-05-10T14:55:58.429Z,1.03
2023-05-10T14:58:24.969Z,1.05
2023-05-10T15:00:52.017Z,1.48
2023-05-10T15:03:19.152Z,1.00
2023-05-10T15:05:46.143Z,0.95
2023-05-10T15:08:13.517Z,1.70
2023-05-10T15:10:40.829Z,1.00
2023-05-10T15:13:07.333Z,0.93
2023-05-10T15:15:33.895Z,1.20
2023-05-10T15:18:00.480Z,1.15
2023-05-10T15:20:27.011Z,1.50
2023-05-10T15:22:53.518Z,1.67
2023-05-10T15:25:21.007Z,1.20
2023-05-10T15:27:47.690Z,1.08
2023-05-10T15:30:17.432Z,1.55
2023-05-10T15:32:44.086Z,1.93
2023-05-10T15:35:11.371Z,1.75
2023-05-10T15:37:38.638Z,1.65
2023-05-10T15:40:05.814Z,0.73
2023-05-10T15:42:35.218Z,0.82
2023-05-10T15:45:01.741Z,0.83
2023-05-10T15:47:31.262Z,0.70
2023-05-10T15:49:57.944Z,1.67
2023-05-10T15:52:24.493Z,1.40
2023-05-10T15:54:51.739Z,0.90
2023-05-10T15:57:18.405Z,1.20
2023-05-10T15:59:45.799Z,1.02
2023-05-10T16:02:12.616Z,1.40
2023-05-10T16:04:41.517Z,1.10
2023-05-10T16:07:08.010Z,1.77
2023-05-10T16:09:34.527Z,2.10
2023-05-10T16:12:02.072Z,2.10
2023-05-10T16:14:28.774Z,2.08
2023-05-10T16:16:55.360Z,2.60
2023-05-10T16:19:22.443Z,1.90
2023-05-10T16:21:49.045Z,1.27
2023-05-10T16:24:15.765Z,1.52
2023-05-10T16:26:42.268Z,1.80
2023-05-10T16:29:09.088Z,1.90
2023-05-10T16:31:35.838Z,1.70
2023-05-10T16:34:02.455Z,1.20
2023-05-10T16:36:29.569Z,1.60
2023-05-10T16:38:56.574Z,1.33
2023-05-10T16:41:23.190Z,1.25
2023-05-10T16:43:50.146Z,1.20
2023-05-10T16:46:16.762Z,1.27
2023-05-10T16:48:43.356Z,1.40
2023-05-10T16:51:09.905Z,1.05
2023-05-10T16:53:36.536Z,1.85
2023-05-10T16:56:03.818Z,1.42
2023-05-10T16:58:30.350Z,1.30
2023-05-10T17:00:56.884Z,1.30
2023-05-10T17:03:23.646Z,1.30
2023-05-10T17:05:50.545Z,1.15
2023-05-10T17:08:17.164Z,1.20
2023-05-10T17:10:43.738Z,1.10
2023-05-10T17:13:10.867Z,1.00
2023-05-10T17:15:38.604Z,0.90
2023-05-10T17:18:06.426Z,1.20
2023-05-10T17:20:32.916Z,1.23
2023-05-10T17:22:59.489Z,1.00
2023-05-10T17:25:26.115Z,1.17
2023-05-10T17:27:52.591Z,1.38
2023-05-10T17:30:25.987Z,1.00
2023-05-10T17:32:54.147Z,1.48
2023-05-10T17:35:21.402Z,1.10
2023-05-10T17:37:48.063Z,1.52
2023-05-10T17:40:14.681Z,1.27
2023-05-10T17:42:41.816Z,1.60
2023-05-10T17:45:09.024Z,1.80
2023-05-10T17:47:35.752Z,1.60
2023-05-10T17:50:02.340Z,1.42
2023-05-10T17:52:31.365Z,1.20
2023-05-10T17:54:59.751Z,1.00
2023-05-10T17:57:26.591Z,1.40
2023-05-10T17:59:53.165Z,1.50
2023-05-10T18:02:19.657Z,1.20
2023-05-10T18:04:46.526Z,1.33
2023-05-10T18:07:13.236Z,1.23
2023-05-10T18:09:39.953Z,1.55
2023-05-10T18:12:06.689Z,1.57
2023-05-10T18:14:40.524Z,1.58
2023-05-10T18:17:08.076Z,1.63
2023-05-10T18:19:34.830Z,1.50
2023-05-10T18:22:01.351Z,1.40
2023-05-10T18:24:38.407Z,1.33
2023-05-10T18:27:08.740Z,1.27
2023-05-10T18:29:36.280Z,1.38
2023-05-10T18:32:02.896Z,1.35
2023-05-10T18:34:29.794Z,1.52
2023-05-10T18:36:56.522Z,1.23
2023-05-10T18:39:23.554Z,1.45
2023-05-10T18:41:50.234Z,1.90
2023-05-10T18:44:16.765Z,1.88
2023-05-10T18:46:43.504Z,1.70
2023-05-10T18:49:10.108Z,1.63
2023-05-10T18:51:36.768Z,1.92
2023-05-10T18:54:03.538Z,2.28
2023-05-10T18:56:30.407Z,2.28
2023-05-10T18:58:57.064Z,1.98
2023-05-10T19:01:23.578Z,1.80
2023-05-10T19:03:50.063Z,2.13
2023-05-10T19:06:16.588Z,1.50
2023-05-10T19:08:43.051Z,1.67
2023-05-10T19:11:09.729Z,2.20
2023-05-10T19:13:36.304Z,2.60
2023-05-10T19:16:05.785Z,2.20
2023-05-10T19:18:32.632Z,1.50
2023-05-10T19:21:02.124Z,1.10
2023-05-10T19:23:30.228Z,1.10
2023-05-10T19:25:56.919Z,0.80
2023-05-10T19:28:23.458Z,0.73
2023-05-10T19:30:50.358Z,0.80
2023-05-10T19:33:20.015Z,0.65
2023-05-10T19:35:46.708Z,0.63
2023-05-10T19:38:13.226Z,0.83
2023-05-10T19:40:39.715Z,1.67
2023-05-10T19:43:06.334Z,1.40
2023-05-10T19:45:34.898Z,1.50
2023-05-10T19:48:02.190Z,1.80
2023-05-10T19:50:28.938Z,1.80
2023-05-10T19:52:55.532Z,0.80
2023-05-10T19:55:27.840Z,1.08
2023-05-10T19:57:54.472Z,0.60
2023-05-10T20:00:21.337Z,0.80
2023-05-10T20:02:47.857Z,0.80
2023-05-10T20:05:14.663Z,0.70
2023-05-10T20:07:41.227Z,0.57
2023-05-10T20:10:08.165Z,0.75
2023-05-10T20:12:34.648Z,0.50
2023-05-10T20:15:01.327Z,0.70
2023-05-10T20:17:28.012Z,0.90
2023-05-10T20:19:54.601Z,0.90
2023-05-10T20:22:21.147Z,1.15
2023-05-10T20:24:48.144Z,0.90
2023-05-10T20:27:14.630Z,1.10
2023-05-10T20:29:41.572Z,0.80
2023-05-10T20:32:08.093Z,1.00
2023-05-10T20:34:35.153Z,1.05
2023-05-10T20:37:01.984Z,1.00
2023-05-10T20:39:29.479Z,1.53
2023-05-10T20:41:55.963Z,1.38
2023-05-10T20:44:22.458Z,1.40
2023-05-10T20:46:49.068Z,1.30
2023-05-10T20:49:15.570Z,1.35
2023-05-10T20:51:42.044Z,1.40
2023-05-10T20:54:08.621Z,1.00
2023-05-10T20:56:35.116Z,0.80
2023-05-10T20:59:01.642Z,1.02
2023-05-10T21:01:28.182Z,0.57
2023-05-10T21:03:54.670Z,0.60
2023-05-10T21:06:21.104Z,0.60
2023-05-10T21:08:47.870Z,0.50
2023-05-10T21:11:14.479Z,0.80
2023-05-10T21:13:41.096Z,0.30
2023-05-10T21:16:07.585Z,0.50
2023-05-10T21:18:34.176Z,0.70
2023-05-10T21:21:00.759Z,0.60
2023-05-10T21:23:27.553Z,0.65
2023-05-10T21:25:54.104Z,0.50
2023-05-10T21:28:20.635Z,0.70
2023-05-10T21:30:48.004Z,0.80
2023-05-10T21:33:14.584Z,0.77
2023-05-10T21:35:42.925Z,0.50
2023-05-10T21:38:11.866Z,0.70
2023-05-10T21:40:39.744Z,0.70
2023-05-10T21:43:06.284Z,0.75
2023-05-10T21:45:33.188Z,0.57
2023-05-10T21:48:00.318Z,0.70
2023-05-10T21:50:27.435Z,0.60
2023-05-10T21:52:54.613Z,0.60
2023-05-10T21:55:21.261Z,0.52
2023-05-10T21:57:47.943Z,0.40
2023-05-10T22:00:16.295Z,0.65
2023-05-10T22:02:43.151Z,0.60
2023-05-10T22:05:09.934Z,0.93
2023-05-10T22:07:36.722Z,0.93
2023-05-10T22:10:03.613Z,0.93
2023-05-10T22:12:30.134Z,0.77
2023-05-10T22:15:09.380Z,1.08
2023-05-10T22:17:38.384Z,0.90
2023-05-10T22:20:09.276Z,1.13
2023-05-10T22:22:36.694Z,1.08
2023-05-10T22:25:04.031Z,0.88
2023-05-10T22:27:30.571Z,0.70
2023-05-10T22:29:57.086Z,0.60
2023-05-10T22:32:23.589Z,0.65
2023-05-10T22:34:50.083Z,0.52
2023-05-10T22:37:17.960Z,0.60
2023-05-10T22:39:48.766Z,0.60
2023-05-10T22:42:15.895Z,0.50
2023-05-10T22:44:43.116Z,1.20
2023-05-10T22:47:09.765Z,0.45
2023-05-10T22:49:37.643Z,0.50
2023-05-10T22:52:04.301Z,0.70
2023-05-10T22:54:30.800Z,0.80
2023-05-10T22:56:57.386Z,0.60
2023-05-10T22:59:23.914Z,1.10
2023-05-10T23:01:50.714Z,0.40
2023-05-10T23:04:17.291Z,0.50
2023-05-10T23:06:43.862Z,0.80
2023-05-10T23:09:10.317Z,0.50
2023-05-10T23:11:36.898Z,0.40
2023-05-10T23:14:03.766Z,0.60
2023-05-10T23:16:30.583Z,0.50
2023-05-10T23:18:57.337Z,0.70
2023-05-10T23:21:25.250Z,0.40
2023-05-10T23:23:52.489Z,0.47
2023-05-10T23:26:19.084Z,0.50
2023-05-10T23:28:45.572Z,0.55
2023-05-10T23:31:12.028Z,0.40
2023-05-10T23:33:38.637Z,0.50
2023-05-10T23:36:05.676Z,0.50
2023-05-10T23:38:32.897Z,0.50
2023-05-10T23:40:59.383Z,0.40
2023-05-10T23:43:25.942Z,0.50
2023-05-10T23:45:57.369Z,0.50
2023-05-10T23:48:24.207Z,0.60
2023-05-10T23:50:50.843Z,0.82
2023-05-10T23:53:17.379Z,0.77
2023-05-10T23:55:44.028Z,0.60
2023-05-10T23:58:10.702Z,0.47
